Time;durP1;ratioP1;P1;durP2;ratioP2;P2;SDS_P1;SDS_P2;PMS_P1;PMS_P2;Temp;Humidity;BMP_temperature;BMP_pressure;BME280_temperature;BME280_humidity;BME280_pressure;Samples;Min_cycle;Max_cycle;Signal;HPM_P1;HPM_P2
2023/08/06 00:02:16;;;;;;;6.90;3.40;;;11.20;99.90;;;;;;1961431;71;27094;-89
2023/08/06 00:05:05;;;;;;;7.97;3.47;;;11.20;99.90;;;;;;1922849;73;25973;-89
2023/08/06 00:07:54;;;;;;;11.70;3.23;;;11.20;99.90;;;;;;1919721;72;25681;-89
2023/08/06 00:10:43;;;;;;;8.50;3.10;;;11.00;99.90;;;;;;1930677;73;25799;-89
2023/08/06 00:16:23;;;;;;;9.00;3.50;;;10.80;99.90;;;;;;1949473;72;27000;-89
2023/08/06 00:19:12;;;;;;;11.10;4.07;;;10.80;99.90;;;;;;1913481;73;25219;-88
2023/08/06 00:22:01;;;;;;;14.03;3.90;;;10.80;99.90;;;;;;1925080;73;25306;-88
2023/08/06 00:24:50;;;;;;;7.53;3.63;;;10.80;99.90;;;;;;1940032;73;25269;-88
2023/08/06 00:30:19;;;;;;;10.57;3.83;;;10.70;99.90;;;;;;1895392;74;27656;-89
2023/08/06 00:33:07;;;;;;;7.07;3.40;;;10.60;99.90;;;;;;1836945;76;25283;-88
2023/08/06 00:35:56;;;;;;;13.67;4.00;;;10.70;99.90;;;;;;1856350;76;25857;-88
2023/08/06 00:38:45;;;;;;;9.57;3.50;;;10.70;99.90;;;;;;1832196;76;25684;-88
2023/08/06 00:41:34;;;;;;;6.53;3.60;;;10.70;99.90;;;;;;1849330;75;25278;-88
2023/08/06 00:44:23;;;;;;;7.87;4.17;;;10.60;99.90;;;;;;1887569;75;25788;-88
2023/08/06 00:47:12;;;;;;;10.50;3.53;;;10.50;99.90;;;;;;1882134;75;25333;-88
2023/08/06 00:50:00;;;;;;;8.90;3.40;;;10.50;99.90;;;;;;1861354;75;26021;-88
2023/08/06 00:52:49;;;;;;;10.37;3.57;;;10.40;99.90;;;;;;1865017;75;25909;-88
2023/08/06 00:58:26;;;;;;;9.37;3.50;;;10.30;99.90;;;;;;1993008;71;27001;-88
2023/08/06 01:01:16;;;;;;;8.93;3.70;;;10.30;99.90;;;;;;1919427;73;25245;-88
2023/08/06 01:04:06;;;;;;;8.60;3.63;;;10.30;99.90;;;;;;1943414;73;25503;-88
2023/08/06 01:12:36;;;;;;;15.57;4.40;;;10.20;99.90;;;;;;1943106;72;27128;-88
2023/08/06 01:15:27;;;;;;;10.67;3.77;;;10.30;99.90;;;;;;1920106;74;25341;-88
2023/08/06 01:18:16;;;;;;;11.70;3.60;;;10.30;99.90;;;;;;1919532;73;25254;-88
2023/08/06 01:21:05;;;;;;;6.63;3.40;;;10.20;99.90;;;;;;1931614;73;25192;-88
2023/08/06 01:23:54;;;;;;;16.23;4.00;;;10.10;99.90;;;;;;1940077;73;25264;-88
2023/08/06 01:29:53;;;;;;;13.13;4.53;;;9.90;99.90;;;;;;1942696;72;26986;-89
2023/08/06 01:35:30;;;;;;;10.50;3.63;;;10.00;99.90;;;;;;1944314;72;27065;-88
2023/08/06 01:38:18;;;;;;;8.00;3.80;;;10.00;99.90;;;;;;1920428;73;25546;-88
2023/08/06 01:41:07;;;;;;;9.93;3.80;;;10.00;99.90;;;;;;1913498;73;25303;-88
2023/08/06 01:43:56;;;;;;;9.03;3.87;;;10.00;99.90;;;;;;1920749;74;25223;-88
2023/08/06 01:46:45;;;;;;;14.73;4.20;;;9.90;99.90;;;;;;1909567;74;25260;-88
2023/08/06 01:49:34;;;;;;;13.17;4.10;;;9.80;99.90;;;;;;1886701;74;25249;-88
2023/08/06 01:52:23;;;;;;;11.83;4.10;;;9.80;99.90;;;;;;1904839;75;25290;-88
2023/08/06 02:08:19;;;;;;;6.40;4.10;;;9.90;99.90;;;;;;1890314;75;27124;-87
2023/08/06 02:24:23;;;;;;;12.27;4.30;;;9.90;99.90;;;;;;1955878;72;27085;-88
2023/08/06 02:30:08;;;;;;;12.80;4.27;;;9.70;99.90;;;;;;1942166;72;28243;-88
2023/08/06 02:32:57;;;;;;;9.30;4.53;;;9.70;99.90;;;;;;1920486;73;25220;-89
2023/08/06 02:35:46;;;;;;;10.50;4.40;;;9.70;99.90;;;;;;1920301;73;25215;-88
2023/08/06 02:38:34;;;;;;;7.63;4.23;;;9.70;99.90;;;;;;1895763;75;25314;-88
2023/08/06 02:41:23;;;;;;;9.57;4.53;;;9.70;99.90;;;;;;1866245;75;25819;-88
2023/08/06 02:44:11;;;;;;;9.17;4.30;;;9.60;99.90;;;;;;1862250;75;26028;-88
2023/08/06 02:49:41;;;;;;;10.83;4.60;;;9.50;99.90;;;;;;1928023;72;27163;-88
2023/08/06 02:52:29;;;;;;;10.33;4.23;;;9.60;99.90;;;;;;1890314;73;25233;-88
2023/08/06 03:09:04;;;;;;;8.87;4.30;;;9.60;99.90;;;;;;1901150;74;26782;-88
2023/08/06 03:11:52;;;;;;;10.40;4.87;;;9.60;99.90;;;;;;1871412;76;25234;-88
2023/08/06 03:14:42;;;;;;;10.57;4.53;;;9.60;99.90;;;;;;1868280;76;25244;-88
2023/08/06 03:17:31;;;;;;;12.23;4.10;;;9.60;99.90;;;;;;1861062;75;25399;-88
2023/08/06 03:20:20;;;;;;;11.67;4.23;;;9.70;99.90;;;;;;1869820;76;25776;-88
2023/08/06 03:23:08;;;;;;;7.17;4.30;;;9.70;99.90;;;;;;1873970;76;25250;-88
2023/08/06 03:25:57;;;;;;;9.60;4.43;;;9.70;99.90;;;;;;1851284;76;25255;-88
2023/08/06 03:28:45;;;;;;;8.80;4.37;;;9.60;99.90;;;;;;1863791;76;25887;-88
2023/08/06 03:31:34;;;;;;;12.10;4.30;;;9.60;99.90;;;;;;1858070;76;25232;-88
2023/08/06 03:34:23;;;;;;;7.57;4.43;;;9.70;99.90;;;;;;1860231;76;25234;-88
2023/08/06 03:50:19;;;;;;;11.37;4.00;;;9.90;99.90;;;;;;1876387;76;27114;-88
2023/08/06 03:55:53;;;;;;;8.67;4.30;;;10.50;99.90;;;;;;1935613;72;27027;-88
2023/08/06 04:01:23;;;;;;;8.63;4.70;;;10.90;99.90;;;;;;1946610;72;27452;-88
2023/08/06 04:31:08;;;;;;;9.20;3.80;;;12.30;99.90;;;;;;1892879;73;27387;-88
2023/08/06 04:36:36;;;;;;;8.63;3.30;;;13.30;99.90;;;;;;1938945;72;27029;-88
2023/08/06 04:39:24;;;;;;;9.97;3.70;;;13.50;99.90;;;;;;1919368;73;25242;-88
2023/08/06 04:42:13;;;;;;;7.40;2.80;;;13.70;99.90;;;;;;1898323;73;25704;-88
2023/08/06 04:45:02;;;;;;;6.10;2.90;;;14.10;99.90;;;;;;1893669;73;25239;-88
2023/08/06 04:47:51;;;;;;;9.97;2.43;;;14.70;99.90;;;;;;1889972;74;25262;-88
2023/08/06 04:50:42;;;;;;;6.80;2.77;;;15.10;99.90;;;;;;1890060;73;25713;-88
2023/08/06 04:53:30;;;;;;;8.90;2.80;;;15.10;99.90;;;;;;1892936;75;25247;-88
2023/08/06 04:56:20;;;;;;;5.47;3.17;;;15.10;99.90;;;;;;1854165;75;25326;-88
2023/08/06 04:59:12;;;;;;;4.57;2.40;;;15.30;99.90;;;;;;1883538;75;25265;-89
2023/08/06 05:02:01;;;;;;;8.00;2.50;;;15.80;99.90;;;;;;1906275;73;25232;-89
2023/08/06 05:17:58;;;;;;;6.83;2.43;;;16.20;99.90;;;;;;1857181;76;28530;-88
2023/08/06 05:23:29;;;;;;;5.17;2.53;;;16.50;99.90;;;;;;1924881;72;27071;-88
2023/08/06 05:26:19;;;;;;;5.97;2.20;;;16.40;99.90;;;;;;1888514;75;25260;-88
2023/08/06 05:29:08;;;;;;;5.70;2.03;;;16.40;99.90;;;;;;1899532;75;25676;-88
2023/08/06 05:31:57;;;;;;;7.13;2.20;;;16.40;99.90;;;;;;1891404;75;25883;-88
2023/08/06 05:37:26;;;;;;;5.70;2.03;;;17.00;99.90;;;;;;1930620;72;27030;-89
2023/08/06 05:40:13;;;;;;;4.93;1.70;;;;;;;;;;1851167;76;25223;-88
2023/08/06 05:43:02;;;;;;;6.27;2.10;;;17.50;99.90;;;;;;1806829;78;25869;-89
2023/08/06 05:45:53;;;;;;;4.83;1.83;;;17.60;99.90;;;;;;1872098;75;25234;-89
2023/08/06 05:48:42;;;;;;;4.30;1.80;;;17.30;99.90;;;;;;1882698;75;25230;-88
2023/08/06 05:51:31;;;;;;;5.43;1.80;;;17.30;99.90;;;;;;1831461;76;25899;-88
2023/08/06 05:54:20;;;;;;;5.23;1.80;;;17.80;99.90;;;;;;1882597;74;25583;-89
2023/08/06 05:57:09;;;;;;;3.77;1.57;;;17.80;99.90;;;;;;1840322;76;25264;-88
2023/08/06 05:59:58;;;;;;;5.00;1.70;;;18.10;99.90;;;;;;1798991;78;25329;-89
2023/08/06 06:02:47;;;;;;;8.83;1.47;;;18.20;99.90;;;;;;1852119;76;25329;-89
2023/08/06 06:05:38;;;;;;;5.47;1.70;;;18.30;99.90;;;;;;1847095;76;25253;-89
2023/08/06 06:08:27;;;;;;;5.73;1.77;;;18.40;99.90;;;;;;1844502;76;25744;-89
2023/08/06 06:11:16;;;;;;;4.80;1.60;;;17.70;99.90;;;;;;1825431;77;25297;-88
2023/08/06 06:16:46;;;;;;;3.40;1.70;;;17.40;99.90;;;;;;1931672;72;27448;-89
2023/08/06 06:22:27;;;;;;;6.37;1.60;;;17.60;99.90;;;;;;1941318;72;27078;-88
2023/08/06 06:25:18;;;;;;;9.23;1.57;;;17.70;99.90;;;;;;1924773;73;25684;-88
2023/08/06 06:28:07;;;;;;;5.10;1.60;;;17.50;99.90;;;;;;1931972;73;25712;-88
2023/08/06 06:30:57;;;;;;;3.33;1.50;;;17.50;99.90;;;;;;1915728;73;25737;-88
2023/08/06 06:33:46;;;;;;;5.70;1.80;;;17.50;99.90;;;;;;1932025;73;25864;-88
2023/08/06 06:36:34;;;;;;;4.77;1.70;;;17.40;99.90;;;;;;1934924;73;25215;-88
2023/08/06 06:39:26;;;;;;;4.83;1.40;;;17.50;99.90;;;;;;1914016;73;25904;-88
2023/08/06 06:42:16;;;;;;;5.10;1.60;;;17.70;99.90;;;;;;1932978;73;25245;-88
2023/08/06 06:45:06;;;;;;;4.27;1.50;;;18.00;99.90;;;;;;1937529;73;25240;-88
2023/08/06 06:47:55;;;;;;;3.57;1.47;;;17.60;99.90;;;;;;1935111;73;25279;-88
2023/08/06 06:50:44;;;;;;;2.77;1.50;;;17.30;99.90;;;;;;1936840;73;25298;-88
2023/08/06 06:53:33;;;;;;;2.23;1.50;;;17.50;99.90;;;;;;1940556;73;25310;-88
2023/08/06 06:59:04;;;;;;;3.63;1.60;;;17.40;99.90;;;;;;1929206;72;27203;-88
2023/08/06 07:05:07;;;;;;;7.87;1.63;;;17.00;99.90;;;;;;1809186;77;26447;-88
2023/08/06 07:24:21;;;;;;;3.40;1.43;;;18.50;99.90;;;;;;1960832;70;27019;-87
2023/08/06 07:27:10;;;;;;;3.87;1.43;;;18.70;99.90;;;;;;1911486;73;25199;-88
2023/08/06 07:29:59;;;;;;;2.03;1.40;;;18.30;99.90;;;;;;1904785;73;25270;-88
2023/08/06 07:32:48;;;;;;;2.53;1.30;;;18.30;99.90;;;;;;1914879;73;25266;-88
2023/08/06 07:35:38;;;;;;;2.40;1.60;;;18.00;99.90;;;;;;1909932;73;25306;-87
2023/08/06 07:38:27;;;;;;;8.27;1.77;;;18.10;99.90;;;;;;1896714;73;25539;-87
2023/08/06 07:41:16;;;;;;;2.63;1.43;;;18.20;99.90;;;;;;1923460;72;25663;-87
2023/08/06 07:44:05;;;;;;;7.13;1.60;;;18.40;99.90;;;;;;1955644;72;25149;-88
2023/08/06 07:49:35;;;;;;;4.47;1.50;;;18.50;99.90;;;;;;1918834;72;27195;-88
2023/08/06 07:52:23;;;;;;;6.30;1.37;;;18.40;99.90;;;;;;1928910;73;25200;-88
2023/08/06 07:55:13;;;;;;;4.73;1.47;;;18.50;99.90;;;;;;1907022;74;25235;-88
2023/08/06 07:58:02;;;;;;;3.93;1.50;;;18.70;99.90;;;;;;1852223;75;25201;-88
2023/08/06 08:00:51;;;;;;;7.97;1.50;;;18.50;99.90;;;;;;1935814;73;25161;-88
2023/08/06 08:03:39;;;;;;;2.73;1.17;;;18.50;99.90;;;;;;1891774;75;25273;-89
2023/08/06 08:06:28;;;;;;;5.50;1.80;;;18.90;99.90;;;;;;1847451;75;25756;-88
2023/08/06 08:09:18;;;;;;;4.23;1.40;;;18.80;99.90;;;;;;1946022;73;25196;-88
2023/08/06 08:12:08;;;;;;;2.00;1.47;;;18.60;99.90;;;;;;1886944;75;25220;-88
2023/08/06 08:14:57;;;;;;;2.80;1.53;;;18.70;99.90;;;;;;1834637;75;25218;-88
2023/08/06 08:17:49;;;;;;;4.33;1.40;;;18.60;99.90;;;;;;1858701;76;25281;-88
2023/08/06 08:20:38;;;;;;;3.30;1.30;;;18.60;99.90;;;;;;1888445;75;25260;-88
2023/08/06 08:23:27;;;;;;;3.63;1.70;;;18.50;99.90;;;;;;1877998;75;25720;-89
2023/08/06 08:26:15;;;;;;;1.30;1.20;;;18.90;99.90;;;;;;1877394;75;25518;-88
2023/08/06 08:29:04;;;;;;;6.17;1.50;;;19.00;99.90;;;;;;1867180;75;25568;-89
2023/08/06 08:31:54;;;;;;;4.13;1.47;;;19.40;99.90;;;;;;1828328;77;25301;-88
2023/08/06 08:37:38;;;;;;;2.60;1.20;;;19.70;99.90;;;;;;1946201;72;26917;-88
2023/08/06 08:53:48;;;;;;;3.47;1.20;;;19.60;99.90;;;;;;1909510;72;27622;-88
2023/08/06 08:59:23;;;;;;;2.03;1.30;;;19.70;99.90;;;;;;1941504;72;27689;-88
2023/08/06 09:02:14;;;;;;;3.60;1.20;;;19.50;99.90;;;;;;1897224;75;25738;-88
2023/08/06 09:18:33;;;;;;;7.07;1.60;;;19.60;99.90;;;;;;1912874;73;27228;-88
2023/08/06 09:37:46;;;;;;;4.77;1.20;;;19.20;99.90;;;;;;1962112;72;27433;-88
2023/08/06 09:40:35;;;;;;;2.00;1.30;;;19.60;99.90;;;;;;1924983;73;25298;-88
2023/08/06 09:43:25;;;;;;;3.70;1.20;;;19.20;99.90;;;;;;1899088;75;25252;-88
2023/08/06 09:46:16;;;;;;;3.03;1.33;;;19.10;99.90;;;;;;1875343;75;25265;-88
2023/08/06 09:49:08;;;;;;;6.27;1.17;;;19.00;99.90;;;;;;1880331;75;25224;-88
2023/08/06 09:51:59;;;;;;;3.57;1.20;;;19.10;99.90;;;;;;1889131;74;25309;-88
2023/08/06 09:54:48;;;;;;;5.13;1.20;;;19.20;99.90;;;;;;1871012;75;25308;-88
2023/08/06 09:57:38;;;;;;;2.70;1.37;;;19.10;99.90;;;;;;1900375;75;25667;-88
2023/08/06 10:00:28;;;;;;;1.17;1.10;;;19.20;99.90;;;;;;1898572;75;25271;-88
2023/08/06 10:03:19;;;;;;;4.23;1.50;;;19.20;99.90;;;;;;1880673;74;25239;-88
2023/08/06 10:06:08;;;;;;;5.77;1.20;;;18.90;99.90;;;;;;1902853;75;25795;-88
2023/08/06 10:08:57;;;;;;;2.30;1.10;;;18.90;99.90;;;;;;1889554;75;25178;-88
2023/08/06 10:11:49;;;;;;;4.40;1.20;;;18.80;99.90;;;;;;1896957;75;25795;-88
2023/08/06 10:14:41;;;;;;;1.67;1.10;;;19.00;99.90;;;;;;1886395;74;25403;-88
2023/08/06 10:17:32;;;;;;;5.37;1.00;;;19.20;99.90;;;;;;1887947;75;25239;-88
2023/08/06 10:23:07;;;;;;;3.73;1.10;;;19.00;99.90;;;;;;1940171;72;26977;-88
2023/08/06 10:25:56;;;;;;;2.57;1.10;;;19.20;99.90;;;;;;1905821;73;25492;-88
2023/08/06 10:28:45;;;;;;;2.53;1.30;;;19.50;99.90;;;;;;1920024;73;25308;-88
2023/08/06 10:32:05;;;;;;;3.67;1.50;;;19.50;99.90;;;;;;1901737;73;26139;-88
2023/08/06 10:35:01;;;;;;;3.70;1.30;;;19.70;99.90;;;;;;1921150;73;25512;-88
2023/08/06 10:37:50;;;;;;;5.03;1.50;;;19.70;99.90;;;;;;1941032;73;25303;-88
2023/08/06 10:40:40;;;;;;;3.53;1.27;;;20.10;99.90;;;;;;1916634;73;25360;-88
2023/08/06 10:43:29;;;;;;;1.53;1.10;;;20.00;99.90;;;;;;1881096;75;25264;-88
2023/08/06 10:46:29;;;;;;;4.10;1.30;;;20.30;99.90;;;;;;1886107;75;25811;-88
2023/08/06 10:49:20;;;;;;;2.70;1.50;;;20.60;99.90;;;;;;1910686;75;25371;-89
2023/08/06 10:52:15;;;;;;;1.67;1.40;;;20.80;99.90;;;;;;1907784;74;25324;-87
2023/08/06 10:55:04;;;;;;;3.23;1.50;;;20.20;99.90;;;;;;1901380;74;25234;-88
2023/08/06 10:57:53;;;;;;;3.87;1.60;;;20.20;99.90;;;;;;1884723;74;25170;-88
2023/08/06 11:00:42;;;;;;;6.17;1.50;;;20.10;99.90;;;;;;1896502;74;25596;-88
2023/08/06 11:03:32;;;;;;;4.77;1.50;;;20.10;99.90;;;;;;1866118;74;25755;-88
2023/08/06 11:06:24;;;;;;;2.80;1.50;;;20.50;99.90;;;;;;1895857;75;25247;-88
2023/08/06 11:09:13;;;;;;;4.30;1.70;;;20.60;99.90;;;;;;1852707;76;25731;-88
2023/08/06 11:12:01;;;;;;;5.90;1.43;;;20.30;99.90;;;;;;1846456;76;25231;-88
2023/08/06 11:14:55;;;;;;;5.97;1.80;;;20.30;99.90;;;;;;1862660;76;25221;-88
2023/08/06 11:17:44;;;;;;;5.50;1.60;;;20.70;99.90;;;;;;1834366;76;25278;-88
2023/08/06 11:26:31;;;;;;;3.50;1.43;;;20.10;99.90;;;;;;1928828;74;27684;-87
2023/08/06 11:29:21;;;;;;;2.93;1.70;;;20.00;99.90;;;;;;1868970;76;25308;-88
2023/08/06 11:32:11;;;;;;;7.40;1.70;;;19.90;99.90;;;;;;1877230;76;25409;-87
2023/08/06 11:34:59;;;;;;;3.50;1.73;;;19.80;99.90;;;;;;1869916;76;25238;-87
2023/08/06 11:37:49;;;;;;;4.07;1.90;;;19.60;99.90;;;;;;1870780;76;25241;-87
2023/08/06 11:40:38;;;;;;;2.90;1.80;;;19.60;99.90;;;;;;1878433;76;25241;-87
2023/08/06 11:43:29;;;;;;;4.90;1.90;;;19.70;99.90;;;;;;1844072;77;25740;-87
2023/08/06 11:46:18;;;;;;;2.73;1.80;;;19.50;99.90;;;;;;1838738;77;25292;-87
2023/08/06 11:49:07;;;;;;;6.70;1.77;;;19.50;99.90;;;;;;1834960;77;26174;-88
2023/08/06 11:51:55;;;;;;;5.23;2.10;;;19.40;99.90;;;;;;1830768;77;25262;-87
2023/08/06 11:54:45;;;;;;;6.07;3.63;;;19.40;99.90;;;;;;1841120;77;25342;-87
2023/08/06 11:57:35;;;;;;;3.43;2.03;;;19.50;99.90;;;;;;1842410;77;25329;-87
2023/08/06 12:03:21;;;;;;;2.17;1.40;;;19.30;99.90;;;;;;1939230;72;26940;-87
2023/08/06 12:06:09;;;;;;;4.40;1.83;;;19.10;99.90;;;;;;1910212;73;25282;-88
2023/08/06 12:12:13;;;;;;;4.27;1.90;;;19.10;99.90;;;;;;1871112;74;27876;-88
2023/08/06 12:15:02;;;;;;;4.13;2.17;;;19.10;99.90;;;;;;1921307;73;25320;-88
2023/08/06 12:20:43;;;;;;;3.40;2.20;;;19.20;99.90;;;;;;1949923;72;27109;-88
2023/08/06 12:23:33;;;;;;;3.90;2.20;;;19.10;99.90;;;;;;1914219;73;25245;-88
2023/08/06 12:26:23;;;;;;;4.43;2.13;;;19.20;99.90;;;;;;1912412;73;25236;-88
2023/08/06 12:29:12;;;;;;;6.53;2.53;;;19.20;99.90;;;;;;1914218;73;25227;-88
2023/08/06 12:32:01;;;;;;;3.67;2.20;;;19.20;99.90;;;;;;1920675;73;26013;-88
2023/08/06 12:34:50;;;;;;;4.50;2.43;;;19.20;99.90;;;;;;1908493;73;25715;-88
2023/08/06 12:37:39;;;;;;;3.83;2.00;;;19.20;99.90;;;;;;1914195;73;25238;-88
2023/08/06 12:40:28;;;;;;;2.90;1.90;;;19.20;99.90;;;;;;1927948;73;25822;-87
2023/08/06 12:43:16;;;;;;;4.27;2.20;;;19.20;99.90;;;;;;1890647;75;25827;-87
2023/08/06 12:46:05;;;;;;;2.63;2.00;;;19.00;99.90;;;;;;1886150;75;25267;-87
2023/08/06 12:48:53;;;;;;;7.00;2.27;;;19.00;99.90;;;;;;1883628;75;25808;-88
2023/08/06 12:51:42;;;;;;;6.57;2.23;;;18.90;99.90;;;;;;1883630;75;25346;-87
2023/08/06 12:54:36;;;;;;;3.53;2.00;;;18.80;99.90;;;;;;1894702;75;26271;-87
2023/08/06 12:57:22;;;;;;;2.87;2.10;;;18.70;99.90;;;;;;1891319;75;25783;-88
2023/08/06 13:02:56;;;;;;;5.87;2.67;;;18.70;99.90;;;;;;1923197;74;26947;-88
2023/08/06 13:08:32;;;;;;;2.80;2.03;;;18.70;99.90;;;;;;1975081;70;27023;-88
2023/08/06 13:11:21;;;;;;;7.37;2.27;;;18.70;99.90;;;;;;1948690;72;25310;-88
2023/08/06 13:14:12;;;;;;;3.27;2.07;;;18.70;99.90;;;;;;1961189;72;25216;-88
2023/08/06 13:17:02;;;;;;;5.03;2.37;;;18.70;99.90;;;;;;1980708;71;25282;-88
2023/08/06 13:19:53;;;;;;;5.10;2.43;;;18.70;99.90;;;;;;1935337;72;25435;-88
2023/08/06 13:22:42;;;;;;;4.40;2.20;;;18.70;99.90;;;;;;1938434;72;25156;-88
2023/08/06 13:25:30;;;;;;;3.40;2.10;;;18.90;99.90;;;;;;1953032;72;25158;-88
2023/08/06 13:28:19;;;;;;;3.30;2.23;;;18.70;99.90;;;;;;1966791;72;25176;-88
2023/08/06 13:31:08;;;;;;;4.63;1.90;;;18.60;99.90;;;;;;1985652;72;25521;-88
2023/08/06 13:33:57;;;;;;;3.43;2.20;;;18.80;99.90;;;;;;1956955;72;25229;-88
2023/08/06 13:36:47;;;;;;;3.53;2.10;;;18.80;99.90;;;;;;1946180;72;25150;-87
2023/08/06 13:39:35;;;;;;;4.00;2.10;;;18.70;99.90;;;;;;1939763;72;25655;-88
2023/08/06 13:45:11;;;;;;;3.57;2.10;;;18.70;99.90;;;;;;1908124;74;27126;-88
2023/08/06 13:47:59;;;;;;;7.73;2.30;;;18.60;99.90;;;;;;1894822;75;25348;-88
2023/08/06 13:53:29;;;;;;;3.70;2.40;;;18.50;99.90;;;;;;1919116;72;27474;-88
2023/08/06 13:56:18;;;;;;;3.23;2.30;;;18.50;99.90;;;;;;1905217;74;26088;-88
2023/08/06 13:59:13;;;;;;;3.33;2.27;;;18.40;99.90;;;;;;1885542;75;25216;-88
2023/08/06 14:01:59;;;;;;;4.33;2.60;;;18.40;99.90;;;;;;1901530;75;25554;-88
2023/08/06 14:04:48;;;;;;;4.67;2.40;;;18.40;99.90;;;;;;1842525;76;25270;-88
2023/08/06 14:07:37;;;;;;;3.40;2.10;;;18.50;99.90;;;;;;1816695;78;25262;-88
2023/08/06 14:10:25;;;;;;;5.07;2.57;;;18.30;99.90;;;;;;1905284;74;25209;-88
2023/08/06 14:16:08;;;;;;;6.43;2.50;;;18.40;99.90;;;;;;1945205;72;27786;-88
2023/08/06 14:21:49;;;;;;;5.30;2.43;;;18.40;99.90;;;;;;1948957;72;26961;-88
2023/08/06 14:24:37;;;;;;;3.93;2.30;;;18.50;99.90;;;;;;1905969;73;25888;-88
2023/08/06 14:27:26;;;;;;;4.83;2.47;;;18.50;99.90;;;;;;1923808;72;25672;-88
2023/08/06 14:46:06;;;;;;;3.73;2.50;;;18.50;99.90;;;;;;1906415;74;27482;-88
2023/08/06 14:48:55;;;;;;;9.13;3.27;;;18.50;99.90;;;;;;1897132;74;25257;-87
2023/08/06 14:54:36;;;;;;;7.27;2.53;;;18.30;99.90;;;;;;1957722;72;27289;-88
2023/08/06 14:57:27;;;;;;;5.20;2.50;;;18.20;99.90;;;;;;1931795;73;25267;-88
2023/08/06 15:00:16;;;;;;;6.03;2.77;;;18.20;99.90;;;;;;1917486;72;25319;-88
2023/08/06 15:05:58;;;;;;;6.37;2.53;;;18.10;99.90;;;;;;1967572;71;27011;-88
2023/08/06 15:11:36;;;;;;;3.43;2.50;;;17.80;99.90;;;;;;1922364;74;27775;-88
2023/08/06 15:14:25;;;;;;;7.07;2.70;;;17.80;99.90;;;;;;1894301;75;25197;-88
2023/08/06 15:17:14;;;;;;;4.47;2.70;;;17.80;99.90;;;;;;1909354;75;25369;-87
2023/08/06 15:33:31;;;;;;;6.37;3.17;;;17.60;99.90;;;;;;1887867;72;27265;-87
2023/08/06 15:50:48;;;;;;;5.40;2.80;;;17.60;99.90;;;;;;1942107;74;27614;-87
2023/08/06 15:56:33;;;;;;;4.37;2.70;;;17.40;99.90;;;;;;1942339;72;27165;-87
2023/08/06 15:59:27;;;;;;;6.60;3.00;;;17.50;99.90;;;;;;1915382;73;25554;-87
2023/08/06 16:02:16;;;;;;;4.83;3.00;;;17.30;99.90;;;;;;1937130;73;25204;-87
2023/08/06 16:05:06;;;;;;;9.20;3.50;;;17.10;99.90;;;;;;1920674;73;25186;-87
2023/08/06 16:08:30;;;;;;;4.80;2.80;;;17.10;99.90;;;;;;1926784;73;25241;-87
2023/08/06 16:29:05;;;;;;;5.03;3.47;;;17.00;99.90;;;;;;1894197;72;27069;-87
2023/08/06 16:59:18;;;;;;;5.10;3.43;;;16.60;99.90;;;;;;1892217;74;28819;-88
2023/08/06 17:16:59;;;;;;;4.37;3.67;;;16.20;99.90;;;;;;1835921;76;27541;-88
2023/08/06 17:20:26;;;;;;;5.80;3.87;;;16.10;99.90;;;;;;1852125;75;25746;-88
2023/08/06 17:37:35;;;;;;;5.83;4.00;;;16.00;99.90;;;;;;1965930;69;26445;-87
2023/08/06 17:43:18;;;;;;;6.90;3.97;;;15.80;99.90;;;;;;1948778;72;27459;-88
2023/08/06 17:46:09;;;;;;;5.60;3.80;;;15.80;99.90;;;;;;1886869;75;25250;-88
2023/08/06 17:51:55;;;;;;;5.93;4.30;;;15.50;99.90;;;;;;1938989;72;26913;-88
2023/08/06 17:54:53;;;;;;;7.40;3.93;;;15.50;99.90;;;;;;1929544;73;25148;-87
2023/08/06 17:57:43;;;;;;;6.33;3.97;;;15.50;99.90;;;;;;1922751;73;25309;-87
2023/08/06 18:00:33;;;;;;;5.53;3.93;;;15.40;99.90;;;;;;1886333;75;25677;-87
2023/08/06 18:17:14;;;;;;;9.97;4.10;;;15.30;99.90;;;;;;1875686;75;27120;-88
2023/08/06 18:33:37;;;;;;;9.50;4.63;;;15.40;99.90;;;;;;1956066;72;27585;-88
2023/08/06 18:49:43;;;;;;;6.07;3.90;;;15.20;99.90;;;;;;1856779;76;27693;-89
2023/08/06 19:05:49;;;;;;;7.20;3.60;;;15.00;99.90;;;;;;1903239;74;27030;-88
2023/08/06 19:35:24;;;;;;;7.90;3.93;;;14.40;99.90;;;;;;1857342;76;27036;-88
2023/08/06 19:51:40;;;;;;;9.07;3.73;;;14.30;99.90;;;;;;1917049;72;27079;-88
2023/08/06 19:54:33;;;;;;;9.00;4.47;;;14.30;99.90;;;;;;1930335;73;25250;-88
2023/08/06 20:11:33;;;;;;;8.57;3.80;;;14.10;99.90;;;;;;1926937;73;27079;-88
2023/08/06 20:14:22;;;;;;;4.53;3.27;;;14.20;99.90;;;;;;1943929;73;25314;-88
2023/08/06 20:20:27;;;;;;;6.27;3.53;;;14.10;99.90;;;;;;1963529;71;27550;-88
2023/08/06 20:36:47;;;;;;;4.97;3.80;;;14.00;99.90;;;;;;1917052;72;27131;-87
2023/08/06 21:09:13;;;;;;;5.70;3.50;;;13.60;99.90;;;;;;1949717;71;27024;-87
2023/08/06 21:25:38;;;;;;;7.00;3.20;;;13.40;99.90;;;;;;1913687;74;27177;-88
2023/08/06 21:52:44;;;;;;;4.10;2.50;;;13.30;99.90;;;;;;1916216;72;27164;-87
2023/08/06 22:09:05;;;;;;;6.80;3.50;;;13.10;99.90;;;;;;1920448;73;27134;-88
2023/08/06 22:42:12;;;;;;;4.90;3.30;;;13.30;99.90;;;;;;1939651;72;27747;-88
2023/08/06 22:45:01;;;;;;;6.83;3.53;;;13.30;99.90;;;;;;1894936;74;25968;-89
2023/08/06 22:47:52;;;;;;;5.77;3.37;;;13.30;99.90;;;;;;1907020;74;25547;-89
2023/08/06 22:50:41;;;;;;;3.47;2.87;;;13.30;99.90;;;;;;1907272;74;25285;-88
2023/08/06 22:56:19;;;;;;;5.40;3.30;;;13.40;99.90;;;;;;1952841;72;27482;-88
2023/08/06 22:59:09;;;;;;;6.00;3.37;;;13.40;99.90;;;;;;1927930;73;25730;-89
2023/08/06 23:02:00;;;;;;;4.00;2.90;;;13.50;99.90;;;;;;1925343;73;26635;-90
2023/08/06 23:04:50;;;;;;;7.10;3.30;;;13.40;99.90;;;;;;1936452;73;25298;-89
2023/08/06 23:07:44;;;;;;;3.87;3.20;;;13.50;99.90;;;;;;1918654;73;25349;-89
2023/08/06 23:10:33;;;;;;;4.93;3.20;;;13.50;99.90;;;;;;1933389;73;25367;-88
2023/08/06 23:27:39;;;;;;;5.10;3.00;;;13.50;99.90;;;;;;1960416;71;26834;-88
2023/08/06 23:33:22;;;;;;;5.80;3.33;;;13.60;99.90;;;;;;1946240;72;27481;-88
2023/08/06 23:36:11;;;;;;;6.53;2.87;;;13.70;99.90;;;;;;1939572;73;25232;-89
2023/08/06 23:39:00;;;;;;;5.20;2.80;;;13.70;99.90;;;;;;1937436;73;26428;-88
2023/08/06 23:41:50;;;;;;;3.73;2.70;;;13.70;99.90;;;;;;1924153;73;25365;-88
2023/08/06 23:44:39;;;;;;;6.03;2.80;;;13.70;99.90;;;;;;1924544;73;25242;-88
2023/08/06 23:47:30;;;;;;;4.13;2.27;;;13.70;99.90;;;;;;1917706;73;26356;-89
